createdAt,value
2022-09-07T00:01:01.621Z,82.45
2022-09-07T00:06:33.676Z,82.62
2022-09-07T00:12:05.499Z,83.68
2022-09-07T00:17:37.387Z,84.82
2022-09-07T00:23:09.275Z,84.36
2022-09-07T00:28:40.831Z,84.45
2022-09-07T00:34:12.815Z,85.03
2022-09-07T00:39:44.862Z,85.79
2022-09-07T00:45:16.967Z,84.35
2022-09-07T00:50:48.985Z,84.67
2022-09-07T00:56:20.869Z,83.71
2022-09-07T01:01:52.811Z,83.65
2022-09-07T01:07:24.322Z,83.58
2022-09-07T01:12:56.344Z,83.30
2022-09-07T01:18:28.166Z,83.65
2022-09-07T01:24:00.374Z,84.48
2022-09-07T01:29:32.457Z,83.46
2022-09-07T01:35:04.250Z,84.91
2022-09-07T01:40:36.118Z,83.72
2022-09-07T01:46:08.050Z,83.86
2022-09-07T01:51:40.100Z,83.81
2022-09-07T01:57:11.894Z,83.52
2022-09-07T02:02:43.858Z,83.56
2022-09-07T02:08:15.644Z,83.98
2022-09-07T02:13:47.578Z,84.07
2022-09-07T02:19:19.296Z,84.55
2022-09-07T02:24:51.146Z,83.91
2022-09-07T02:30:23.177Z,83.74
2022-09-07T02:35:54.596Z,83.70
2022-09-07T02:41:26.477Z,83.74
2022-09-07T02:46:58.302Z,82.89
2022-09-07T02:52:30.090Z,82.76
2022-09-07T02:58:01.959Z,82.70
2022-09-07T03:03:33.813Z,82.62
2022-09-07T03:09:05.505Z,82.51
2022-09-07T03:14:37.398Z,82.43
2022-09-07T03:22:30.346Z,81.75
2022-09-07T03:28:02.396Z,81.58
2022-09-07T03:33:34.506Z,81.47
2022-09-07T03:39:06.243Z,80.71
2022-09-07T03:44:37.904Z,80.93
2022-09-07T03:50:09.864Z,80.91
2022-09-07T03:55:41.421Z,80.69
2022-09-07T04:01:13.256Z,81.36
2022-09-07T04:06:44.868Z,82.00
2022-09-07T04:12:16.642Z,82.08
2022-09-07T04:17:48.758Z,81.96
2022-09-07T04:23:20.096Z,82.09
2022-09-07T04:28:52.418Z,81.71
2022-09-07T04:34:24.571Z,81.60
2022-09-07T04:39:56.266Z,81.73
2022-09-07T04:45:27.864Z,81.96
2022-09-07T04:51:02.907Z,81.39
2022-09-07T04:56:31.423Z,81.74
2022-09-07T05:02:03.244Z,81.10
2022-09-07T05:07:35.103Z,81.34
2022-09-07T05:13:06.601Z,81.12
2022-09-07T05:18:38.400Z,80.96
2022-09-07T05:24:10.126Z,80.49
2022-09-07T05:35:13.473Z,81.23
2022-09-07T05:40:45.112Z,82.38
2022-09-07T05:46:16.937Z,81.13
2022-09-07T05:51:48.922Z,82.73
2022-09-07T05:57:20.463Z,83.21
2022-09-07T06:02:52.430Z,83.06
2022-09-07T06:08:23.834Z,85.19
2022-09-07T06:13:55.852Z,85.04
2022-09-07T06:19:27.840Z,85.29
2022-09-07T06:24:59.383Z,85.39
2022-09-07T06:36:03.231Z,86.18
2022-09-07T06:47:06.516Z,85.84
2022-09-07T06:58:10.122Z,84.33
2022-09-07T07:03:42.093Z,81.26
2022-09-07T07:09:14.043Z,76.70
2022-09-07T07:14:45.429Z,73.01
2022-09-07T07:20:17.294Z,70.62
2022-09-07T07:25:49.087Z,65.37
2022-09-07T07:31:21.097Z,65.37
2022-09-07T07:36:53.176Z,61.29
2022-09-07T07:42:24.776Z,60.37
2022-09-07T07:47:56.511Z,59.74
2022-09-07T07:53:43.650Z,58.00
2022-09-07T07:59:00.131Z,57.14
2022-09-07T08:10:01.338Z,56.11
2022-09-07T08:15:33.339Z,56.22
2022-09-07T08:21:04.865Z,56.91
2022-09-07T08:32:06.721Z,55.62
2022-09-07T08:37:38.532Z,54.97
2022-09-07T08:43:10.377Z,54.60
2022-09-07T08:48:42.525Z,54.96
2022-09-07T08:54:14.335Z,54.46
2022-09-07T08:59:46.018Z,56.32
2022-09-07T09:10:47.223Z,54.96
2022-09-07T09:16:19.498Z,53.50
2022-09-07T09:21:51.103Z,52.39
2022-09-07T09:27:22.814Z,51.31
2022-09-07T09:32:54.679Z,51.55
2022-09-07T09:38:27.091Z,51.18
2022-09-07T09:43:58.859Z,52.72
2022-09-07T09:49:30.422Z,52.84
2022-09-07T09:55:33.997Z,53.30
2022-09-07T10:00:34.728Z,52.33
2022-09-07T10:06:05.805Z,53.18
2022-09-07T10:17:09.698Z,52.45
2022-09-07T10:22:41.247Z,52.78
2022-09-07T10:28:13.319Z,52.03
2022-09-07T10:34:25.671Z,52.22
2022-09-07T10:39:16.726Z,52.50
2022-09-07T10:50:24.638Z,52.36
2022-09-07T10:55:49.296Z,52.92
2022-09-07T11:01:21.218Z,52.43
2022-09-07T11:06:52.993Z,53.10
2022-09-07T11:12:27.953Z,53.00
2022-09-07T11:17:56.527Z,52.54
2022-09-07T11:23:28.183Z,52.18
2022-09-07T11:34:32.020Z,52.87
2022-09-07T11:40:03.553Z,51.81
2022-09-07T11:45:35.561Z,52.19
2022-09-07T11:51:07.347Z,51.35
2022-09-07T11:56:39.129Z,51.52
2022-09-07T12:02:10.948Z,50.93
2022-09-07T12:07:42.738Z,52.06
2022-09-07T12:13:14.479Z,51.95
2022-09-07T12:18:46.253Z,50.42
2022-09-07T12:24:17.833Z,51.30
2022-09-07T12:29:49.583Z,51.70
2022-09-07T12:35:21.298Z,51.72
2022-09-07T12:40:53.495Z,50.25
2022-09-07T12:46:25.552Z,49.96
2022-09-07T12:52:06.868Z,50.17
2022-09-07T12:57:29.378Z,50.67
2022-09-07T13:08:30.872Z,50.24
2022-09-07T13:14:04.526Z,49.50
2022-09-07T13:19:35.431Z,49.99
2022-09-07T13:30:36.291Z,49.81
2022-09-07T13:36:08.064Z,49.66
2022-09-07T13:41:39.960Z,49.65
2022-09-07T13:47:11.520Z,48.56
2022-09-07T13:52:45.776Z,47.70
2022-09-07T14:03:49.129Z,49.56
2022-09-07T14:09:20.781Z,48.65
2022-09-07T14:14:52.614Z,50.11
2022-09-07T14:20:24.596Z,50.10
2022-09-07T14:31:28.213Z,50.04
2022-09-07T14:37:01.445Z,50.15
2022-09-07T14:42:32.145Z,50.08
2022-09-07T14:48:03.986Z,51.11
2022-09-07T14:53:36.106Z,50.78
2022-09-07T14:59:07.547Z,49.90
2022-09-07T15:15:43.149Z,46.49
2022-09-07T15:21:14.626Z,45.78
2022-09-07T15:32:18.215Z,47.17
2022-09-07T15:38:06.053Z,47.17
2022-09-07T15:43:23.320Z,47.76
2022-09-07T15:48:53.439Z,48.71
2022-09-07T15:54:25.600Z,48.72
2022-09-07T15:59:57.882Z,48.80
2022-09-07T16:05:31.314Z,49.05
2022-09-07T16:11:12.503Z,49.46
2022-09-07T16:22:07.290Z,49.86
2022-09-07T16:27:38.896Z,50.15
2022-09-07T16:33:10.889Z,50.29
2022-09-07T16:35:22.166Z,50.45
2022-09-07T16:40:53.620Z,51.73
2022-09-07T16:46:25.311Z,52.65
2022-09-07T16:51:57.683Z,52.10
2022-09-07T16:58:35.186Z,54.39
2022-09-07T17:03:01.330Z,55.56
2022-09-07T17:08:33.379Z,55.03
2022-09-07T17:14:04.926Z,56.32
2022-09-07T17:19:37.012Z,56.80
2022-09-07T17:25:09.201Z,56.55
2022-09-07T17:36:13.422Z,57.98
2022-09-07T17:41:45.639Z,56.83
2022-09-07T17:47:17.347Z,57.44
2022-09-07T17:52:52.691Z,58.67
2022-09-07T17:58:20.890Z,60.55
2022-09-07T18:03:52.489Z,60.88
2022-09-07T18:09:23.632Z,62.17
2022-09-07T18:14:55.567Z,64.08
2022-09-07T18:20:27.405Z,63.48
2022-09-07T18:25:59.025Z,64.69
2022-09-07T18:31:30.471Z,65.41
2022-09-07T18:37:02.497Z,64.90
2022-09-07T18:42:34.584Z,65.98
2022-09-07T18:48:06.093Z,66.26
2022-09-07T18:53:37.591Z,66.58
2022-09-07T18:59:09.394Z,66.12
2022-09-07T19:12:24.189Z,67.49
2022-09-07T19:17:56.200Z,66.98
2022-09-07T19:25:40.471Z,66.36
2022-09-07T19:31:12.461Z,66.63
2022-09-07T19:36:44.138Z,66.97
2022-09-07T19:44:42.715Z,65.57
2022-09-07T19:50:14.397Z,66.94
2022-09-07T19:55:45.903Z,67.84
2022-09-07T20:01:17.357Z,68.67
2022-09-07T20:06:48.899Z,68.11
2022-09-07T20:12:20.351Z,68.89
2022-09-07T20:17:51.718Z,69.70
2022-09-07T20:23:29.258Z,69.88
2022-09-07T20:34:32.548Z,70.40
2022-09-07T20:40:10.174Z,71.53
2022-09-07T20:45:47.755Z,71.78
2022-09-07T20:51:21.003Z,71.35
2022-09-07T20:56:59.989Z,73.17
2022-09-07T21:02:28.296Z,72.97
2022-09-07T21:13:29.107Z,73.81
2022-09-07T21:19:00.260Z,73.61
2022-09-07T21:24:31.670Z,72.93
2022-09-07T21:30:03.259Z,73.34
2022-09-07T21:35:34.738Z,72.95
2022-09-07T21:41:06.051Z,74.93
2022-09-07T21:43:29.017Z,75.02
2022-09-07T21:49:00.193Z,74.96
2022-09-07T21:54:31.674Z,74.89
2022-09-07T22:00:03.244Z,76.16
2022-09-07T22:05:34.673Z,75.69
2022-09-07T22:11:05.945Z,75.54
2022-09-07T22:16:37.452Z,75.04
2022-09-07T22:22:08.730Z,72.97
2022-09-07T22:27:40.084Z,75.12
2022-09-07T22:38:41.039Z,75.95
2022-09-07T22:44:12.592Z,75.36
2022-09-07T22:49:43.969Z,75.29
2022-09-07T22:55:15.690Z,75.11
2022-09-07T23:00:47.241Z,74.14
2022-09-07T23:06:18.668Z,77.04
2022-09-07T23:11:49.872Z,80.28
2022-09-07T23:17:21.319Z,79.11
2022-09-07T23:22:53.075Z,79.63
2022-09-07T23:28:24.852Z,80.40
2022-09-07T23:39:26.209Z,86.57
2022-09-07T23:50:27.517Z,88.43
2022-09-07T23:55:59.373Z,88.62
